Time;durP1;ratioP1;P1;durP2;ratioP2;P2;SDS_P1;SDS_P2;PMS_P1;PMS_P2;Temp;Humidity;BMP_temperature;BMP_pressure;BME280_temperature;BME280_humidity;BME280_pressure;Samples;Min_cycle;Max_cycle;Signal;HPM_P1;HPM_P2
2022/02/03 00:00:39;;;;;;;1999.90;999.90;;;9.10;99.90;;;;;;5075829;28;20416;-75
2022/02/03 00:06:14;;;;;;;1999.90;999.90;;;9.10;99.90;;;;;;5058992;28;20779;-75
2022/02/03 00:09:24;;;;;;;1999.90;999.90;;;9.10;99.90;;;;;;5093790;28;20772;-75
2022/02/03 00:25:41;;;;;;;1999.90;999.90;;;9.10;99.90;;;;;;5058852;28;20405;-75
2022/02/03 00:28:13;;;;;;;1999.90;999.90;;;9.20;99.90;;;;;;5093505;28;20411;-75
2022/02/03 00:49:09;;;;;;;1999.90;999.90;;;9.30;99.90;;;;;;5093050;28;20396;-75
2022/02/03 00:51:36;;;;;;;1999.90;999.90;;;9.30;99.90;;;;;;5092742;28;20526;-75
2022/02/03 00:54:02;;;;;;;1999.90;999.90;;;9.20;99.90;;;;;;5092703;28;20476;-75
2022/02/03 00:56:35;;;;;;;1999.90;999.90;;;9.20;99.90;;;;;;5074699;28;20439;-75
2022/02/03 00:59:11;;;;;;;1999.90;999.90;;;9.20;99.90;;;;;;5092801;28;20401;-75
2022/02/03 01:01:39;;;;;;;1999.90;999.90;;;9.20;99.90;;;;;;5092718;28;20408;-76
2022/02/03 01:04:10;;;;;;;1999.90;999.90;;;9.30;99.90;;;;;;5092486;28;20414;-76
2022/02/03 01:06:46;;;;;;;1999.90;999.90;;;9.20;99.90;;;;;;5092621;28;20400;-76
2022/02/03 01:09:13;;;;;;;1999.90;999.90;;;9.30;99.90;;;;;;5092656;28;20409;-75
2022/02/03 01:11:45;;;;;;;1999.90;999.90;;;9.30;99.90;;;;;;5092363;28;20451;-75
2022/02/03 01:14:20;;;;;;;1999.90;999.90;;;9.20;99.90;;;;;;5092211;28;20455;-76
2022/02/03 01:53:39;;;;;;;1999.90;999.90;;;9.20;99.90;;;;;;5092024;28;20493;-76
2022/02/03 01:56:07;;;;;;;1999.90;999.90;;;9.10;99.90;;;;;;5091804;28;21142;-75
2022/02/03 01:58:45;;;;;;;1999.90;999.90;;;9.20;99.90;;;;;;5092186;28;20175;-75
2022/02/03 02:01:20;;;;;;;1999.90;999.90;;;9.10;99.90;;;;;;5091939;28;20553;-75
2022/02/03 02:04:08;;;;;;;1999.90;999.90;;;9.20;99.90;;;;;;5091897;28;20433;-76
2022/02/03 02:06:40;;;;;;;1999.90;999.90;;;9.20;99.90;;;;;;5051999;28;20411;-75
2022/02/03 02:09:20;;;;;;;1999.90;999.90;;;9.10;99.90;;;;;;5091903;28;20423;-75
2022/02/03 02:12:17;;;;;;;1999.90;999.90;;;9.20;99.90;;;;;;5091836;28;20385;-75
2022/02/03 02:18:22;;;;;;;1999.90;999.90;;;9.10;99.90;;;;;;5091895;28;20394;-75
2022/02/03 02:38:29;;;;;;;1999.90;999.90;;;9.10;99.90;;;;;;5095930;28;20400;-76
2022/02/03 02:44:30;;;;;;;1999.90;999.90;;;9.10;99.90;;;;;;5095382;28;20417;-76
2022/02/03 02:46:56;;;;;;;1999.90;999.90;;;9.10;99.90;;;;;;5077161;28;20400;-76
2022/02/03 02:49:48;;;;;;;1999.90;999.90;;;9.10;99.90;;;;;;5095600;28;20403;-76
2022/02/03 02:52:22;;;;;;;1999.90;999.90;;;9.10;99.90;;;;;;5095483;28;20501;-76
2022/02/03 02:55:22;;;;;;;1999.90;999.90;;;9.10;99.90;;;;;;5094957;28;20514;-75
2022/02/03 03:33:56;;;;;;;1999.90;999.90;;;8.80;99.90;;;;;;5056422;28;20430;-75
2022/02/03 03:36:23;;;;;;;1999.90;999.90;;;8.80;99.90;;;;;;5100128;28;20459;-75
2022/02/03 03:38:50;;;;;;;1999.90;999.90;;;8.80;99.90;;;;;;5100040;28;20393;-75
2022/02/03 03:41:18;;;;;;;1999.90;999.90;;;8.80;99.90;;;;;;5099852;28;20404;-75
2022/02/03 03:44:02;;;;;;;1999.90;999.90;;;8.80;99.90;;;;;;5098669;28;20440;-75
2022/02/03 03:46:35;;;;;;;1999.90;999.90;;;8.70;99.90;;;;;;5100047;28;20406;-75
2022/02/03 03:49:05;;;;;;;1999.90;999.90;;;8.80;99.90;;;;;;5101303;28;20432;-75
2022/02/03 03:51:43;;;;;;;1999.90;999.90;;;8.80;99.90;;;;;;5101629;28;20554;-75
2022/02/03 03:54:15;;;;;;;1999.90;999.90;;;8.80;99.90;;;;;;5100105;28;21011;-75
2022/02/03 03:57:06;;;;;;;1999.90;999.90;;;8.80;99.90;;;;;;5101837;28;20398;-75
2022/02/03 05:03:11;;;;;;;1999.90;999.90;;;9.00;99.90;;;;;;5030161;28;20444;-76
2022/02/03 05:08:54;;;;;;;1999.90;999.90;;;8.90;99.90;;;;;;5092965;28;20937;-76
2022/02/03 05:45:03;;;;;;;1999.90;999.90;;;8.70;99.90;;;;;;5091951;28;20957;-76
2022/02/03 06:13:16;;;;;;;1999.90;999.90;;;8.80;99.90;;;;;;5092084;28;20469;-76
2022/02/03 06:24:07;;;;;;;1999.90;999.90;;;9.00;99.90;;;;;;5091900;28;20424;-76
2022/02/03 06:29:23;;;;;;;1999.90;999.90;;;8.90;99.90;;;;;;5091953;28;20481;-76
2022/02/03 06:31:50;;;;;;;1999.90;999.90;;;8.90;99.90;;;;;;5091634;28;20404;-76
2022/02/03 06:34:17;;;;;;;1999.90;999.90;;;8.90;99.90;;;;;;5091386;28;20821;-76
2022/02/03 06:36:43;;;;;;;1999.90;999.90;;;8.90;99.90;;;;;;5091669;28;20503;-76
2022/02/03 06:39:14;;;;;;;1999.90;999.90;;;8.90;99.90;;;;;;5091606;28;20497;-76
2022/02/03 06:41:40;;;;;;;1999.90;999.90;;;9.00;99.90;;;;;;5091251;28;20455;-76
2022/02/03 06:44:06;;;;;;;1999.90;999.90;;;8.90;99.90;;;;;;5091304;28;20432;-75
2022/02/03 06:46:32;;;;;;;1999.90;999.90;;;8.90;99.90;;;;;;5091585;28;20494;-75
2022/02/03 06:49:12;;;;;;;1999.90;999.90;;;8.90;99.90;;;;;;5091638;28;20217;-75
2022/02/03 06:51:44;;;;;;;1999.90;999.90;;;8.90;99.90;;;;;;5091468;28;20404;-75
2022/02/03 06:54:18;;;;;;;1999.90;999.90;;;8.80;99.90;;;;;;5091051;28;20459;-75
2022/02/03 06:56:56;;;;;;;1999.90;999.90;;;8.80;99.90;;;;;;5091599;28;20960;-75
2022/02/03 06:59:28;;;;;;;1999.90;999.90;;;8.90;99.90;;;;;;5073207;28;20420;-75
2022/02/03 07:01:54;;;;;;;1999.90;999.90;;;8.90;99.90;;;;;;5091738;28;20432;-75
2022/02/03 07:04:26;;;;;;;1999.90;999.90;;;8.80;99.90;;;;;;5091006;28;20500;-75
2022/02/03 07:06:52;;;;;;;1999.90;999.90;;;8.90;99.90;;;;;;5094417;28;20190;-75
2022/02/03 07:09:17;;;;;;;1999.90;999.90;;;8.90;99.90;;;;;;5094816;28;20413;-75
2022/02/03 07:11:44;;;;;;;1999.90;999.90;;;8.90;99.90;;;;;;5094812;28;20666;-75
2022/02/03 07:14:11;;;;;;;1999.90;999.90;;;8.90;99.90;;;;;;5094463;28;20555;-75
2022/02/03 07:16:46;;;;;;;1999.90;999.90;;;8.90;99.90;;;;;;5094782;28;20869;-76
2022/02/03 07:19:13;;;;;;;1999.90;999.90;;;8.80;99.90;;;;;;5094672;28;20405;-75
2022/02/03 07:21:39;;;;;;;1999.90;999.90;;;8.80;99.90;;;;;;5094564;28;20910;-75
2022/02/03 07:24:05;;;;;;;1999.90;999.90;;;8.90;99.90;;;;;;5094294;28;20410;-75
2022/02/03 07:26:30;;;;;;;1999.90;999.90;;;8.80;99.90;;;;;;5094578;28;20413;-75
2022/02/03 07:28:56;;;;;;;1999.90;999.90;;;8.80;99.90;;;;;;5094557;28;20404;-75
2022/02/03 07:31:21;;;;;;;1999.90;999.90;;;8.80;99.90;;;;;;5094483;28;20198;-75
2022/02/03 07:33:47;;;;;;;1999.90;999.90;;;8.90;99.90;;;;;;5094296;28;20676;-75
2022/02/03 07:36:13;;;;;;;1999.90;999.90;;;8.90;99.90;;;;;;5094145;28;20324;-75
2022/02/03 07:38:39;;;;;;;1999.90;999.90;;;8.90;99.90;;;;;;5094586;28;20635;-75
2022/02/03 07:41:05;;;;;;;1999.90;999.90;;;9.00;99.90;;;;;;5094593;28;20249;-75
2022/02/03 07:43:31;;;;;;;1999.90;999.90;;;9.00;99.90;;;;;;5094087;28;20575;-75
2022/02/03 07:45:58;;;;;;;1999.90;999.90;;;8.90;99.90;;;;;;5093914;28;21007;-76
2022/02/03 07:48:24;;;;;;;1999.90;999.90;;;9.00;99.90;;;;;;5094084;28;20205;-76
2022/02/03 07:50:49;;;;;;;1999.90;999.90;;;9.00;99.90;;;;;;5094293;28;20405;-76
2022/02/03 07:53:15;;;;;;;1999.90;999.90;;;9.10;99.90;;;;;;5094013;28;20937;-75
2022/02/03 07:55:41;;;;;;;1999.90;999.90;;;9.10;99.90;;;;;;5093711;28;20567;-75
2022/02/03 07:58:07;;;;;;;1999.90;999.90;;;9.00;99.90;;;;;;5093929;28;20939;-75
2022/02/03 08:00:33;;;;;;;1999.90;999.90;;;9.00;99.90;;;;;;5093910;28;20416;-76
2022/02/03 08:02:59;;;;;;;1999.90;999.90;;;9.00;99.90;;;;;;5093755;28;20811;-75
2022/02/03 08:05:26;;;;;;;1999.90;999.90;;;9.00;99.90;;;;;;5093569;28;20596;-75
2022/02/03 08:09:03;;;;;;;1999.90;999.90;;;9.10;99.90;;;;;;5093781;28;20592;-75
2022/02/03 08:10:56;;;;;;;1999.90;999.90;;;9.10;99.90;;;;;;5079935;28;20441;-75
2022/02/03 08:13:29;;;;;;;1999.90;999.90;;;9.00;99.90;;;;;;5075419;28;20432;-75
2022/02/03 08:16:03;;;;;;;1999.90;999.90;;;8.90;99.90;;;;;;5093352;28;20821;-75
2022/02/03 08:18:31;;;;;;;1999.90;999.90;;;9.00;99.90;;;;;;5092815;28;20910;-75
2022/02/03 08:21:02;;;;;;;1999.90;999.90;;;9.00;99.90;;;;;;5093722;28;20407;-76
2022/02/03 08:23:55;;;;;;;1999.90;999.90;;;9.00;99.90;;;;;;5093371;28;20432;-76
2022/02/03 08:26:30;;;;;;;1999.90;999.90;;;9.00;99.90;;;;;;5093141;28;20748;-76
2022/02/03 08:29:12;;;;;;;1999.90;999.90;;;8.90;99.90;;;;;;5093273;28;20465;-76
2022/02/03 08:32:26;;;;;;;1999.90;999.90;;;8.80;99.90;;;;;;5093270;28;20402;-76
2022/02/03 08:34:43;;;;;;;1999.90;999.90;;;8.90;99.90;;;;;;5081846;28;20469;-76
2022/02/03 08:37:08;;;;;;;1999.90;999.90;;;8.90;99.90;;;;;;5093215;28;20506;-76
2022/02/03 08:39:39;;;;;;;1999.90;999.90;;;8.90;99.90;;;;;;5093168;28;20489;-76
2022/02/03 08:42:05;;;;;;;1999.90;999.90;;;8.90;99.90;;;;;;5093056;28;20193;-76
2022/02/03 08:44:31;;;;;;;1999.90;999.90;;;8.80;99.90;;;;;;5092727;28;20408;-76
2022/02/03 08:46:56;;;;;;;1999.90;999.90;;;8.90;99.90;;;;;;5093107;28;20416;-76
2022/02/03 08:49:23;;;;;;;1999.90;999.90;;;8.90;99.90;;;;;;5092972;28;20173;-76
2022/02/03 08:51:50;;;;;;;1999.90;999.90;;;8.90;99.90;;;;;;5092908;28;20632;-76
2022/02/03 08:54:16;;;;;;;1999.90;999.90;;;8.90;99.90;;;;;;5092502;28;20787;-76
2022/02/03 08:56:50;;;;;;;1999.90;999.90;;;9.00;99.90;;;;;;5092855;28;20466;-76
2022/02/03 09:31:05;;;;;;;1999.90;999.90;;;8.70;99.90;;;;;;5092339;28;20521;-75
2022/02/03 09:40:28;;;;;;;1999.90;999.90;;;8.60;99.90;;;;;;5091259;28;20444;-75
2022/02/03 09:56:36;;;;;;;1999.90;999.90;;;8.70;99.90;;;;;;5090611;28;20926;-74
2022/02/03 09:59:13;;;;;;;1999.90;999.90;;;8.70;99.90;;;;;;5068449;28;20401;-75
2022/02/03 10:01:54;;;;;;;1999.90;999.90;;;8.70;99.90;;;;;;5073517;28;20428;-74
2022/02/03 10:04:43;;;;;;;1999.90;999.90;;;8.70;99.90;;;;;;5069001;28;20417;-76
2022/02/03 10:07:17;;;;;;;1999.90;999.90;;;8.70;99.90;;;;;;5070082;28;20907;-76
2022/02/03 10:09:43;;;;;;;1999.90;999.90;;;8.60;99.90;;;;;;5069551;28;20420;-76
2022/02/03 10:12:10;;;;;;;1999.90;999.90;;;8.60;99.90;;;;;;5070812;28;20429;-75
2022/02/03 10:14:56;;;;;;;1999.90;999.90;;;8.60;99.90;;;;;;5070538;28;20537;-76
2022/02/03 10:17:32;;;;;;;1999.90;999.90;;;8.60;99.90;;;;;;5070567;28;20417;-75
2022/02/03 10:20:00;;;;;;;1999.90;999.90;;;8.40;99.90;;;;;;5071205;28;20771;-75
2022/02/03 10:22:27;;;;;;;1999.90;999.90;;;8.40;99.90;;;;;;5070989;28;20437;-75
2022/02/03 10:25:01;;;;;;;1999.90;999.90;;;8.40;99.90;;;;;;5070614;28;20504;-76
2022/02/03 10:27:37;;;;;;;1999.90;999.90;;;8.40;99.90;;;;;;5071085;28;20928;-75
2022/02/03 10:30:13;;;;;;;1999.90;999.90;;;8.40;99.90;;;;;;5070407;28;20420;-75
2022/02/03 10:32:45;;;;;;;1999.90;999.90;;;8.40;99.90;;;;;;5070581;28;20890;-75
2022/02/03 10:35:34;;;;;;;1999.90;999.90;;;8.30;99.90;;;;;;5070299;28;20460;-76
2022/02/03 10:44:18;;;;;;;1999.90;999.90;;;8.30;99.90;;;;;;5074945;28;20443;-74
2022/02/03 10:46:59;;;;;;;1999.90;999.90;;;8.20;99.90;;;;;;5074291;28;20508;-74
2022/02/03 10:49:56;;;;;;;1999.90;999.90;;;8.30;99.90;;;;;;5074626;28;20441;-75
2022/02/03 10:52:54;;;;;;;1999.90;999.90;;;8.30;99.90;;;;;;5075618;28;20503;-74
2022/02/03 11:08:41;;;;;;;1999.90;999.90;;;8.20;99.90;;;;;;5074904;28;20417;-73
2022/02/03 11:11:16;;;;;;;1999.90;999.90;;;8.30;99.90;;;;;;5075044;28;20416;-73
2022/02/03 11:13:42;;;;;;;1999.90;999.90;;;8.30;99.90;;;;;;5075262;28;20933;-73
2022/02/03 11:16:10;;;;;;;1999.90;999.90;;;8.20;99.90;;;;;;5073850;28;20464;-73
2022/02/03 11:18:37;;;;;;;1999.90;999.90;;;8.30;99.90;;;;;;5057449;28;20509;-74
2022/02/03 11:21:03;;;;;;;1999.90;999.90;;;8.20;99.90;;;;;;5075388;28;20475;-73
2022/02/03 11:31:44;;;;;;;1999.90;999.90;;;8.20;99.90;;;;;;5073948;28;20475;-73
2022/02/03 11:37:53;;;;;;;1999.90;999.90;;;8.30;99.90;;;;;;5073981;28;20915;-73
2022/02/03 11:44:04;;;;;;;1999.90;999.90;;;8.20;99.90;;;;;;5067297;28;20534;-73
2022/02/03 11:46:46;;;;;;;1999.90;999.90;;;8.20;99.90;;;;;;5073022;28;20417;-74
2022/02/03 11:57:33;;;;;;;1999.90;999.90;;;8.10;99.90;;;;;;5074555;28;20405;-74
2022/02/03 12:16:48;;;;;;;1999.90;999.90;;;8.00;99.90;;;;;;5073427;28;20456;-75
2022/02/03 12:19:25;;;;;;;1999.90;999.90;;;8.00;99.90;;;;;;5074847;28;20416;-74
2022/02/03 12:22:36;;;;;;;1999.90;999.90;;;8.00;99.90;;;;;;5074287;28;20906;-74
2022/02/03 12:25:27;;;;;;;1999.90;999.90;;;8.00;99.90;;;;;;5074193;28;20424;-74
2022/02/03 12:31:05;;;;;;;1999.90;999.90;;;7.90;99.90;;;;;;5074511;28;20408;-75
2022/02/03 12:38:48;;;;;;;1999.90;999.90;;;7.80;99.90;;;;;;5074977;28;21035;-74
2022/02/03 12:41:20;;;;;;;1999.90;999.90;;;7.90;99.90;;;;;;5075195;28;20405;-74
2022/02/03 12:44:00;;;;;;;1999.90;999.90;;;7.80;99.90;;;;;;5074888;28;20799;-73
2022/02/03 12:46:27;;;;;;;1999.90;999.90;;;7.90;99.90;;;;;;5074444;28;20409;-74
2022/02/03 12:48:57;;;;;;;1999.90;999.90;;;7.80;99.90;;;;;;5073779;28;20408;-74
2022/02/03 12:51:24;;;;;;;1999.90;999.90;;;7.80;99.90;;;;;;5073551;28;20404;-75
2022/02/03 12:53:51;;;;;;;1999.90;999.90;;;7.80;99.90;;;;;;5073908;28;20421;-74
2022/02/03 12:56:23;;;;;;;1999.90;999.90;;;7.80;99.90;;;;;;5072732;28;20453;-74
2022/02/03 12:58:53;;;;;;;1999.90;999.90;;;7.70;99.90;;;;;;5071919;28;20404;-75
2022/02/03 13:01:28;;;;;;;1999.90;999.90;;;7.70;99.90;;;;;;5072587;28;20409;-74
2022/02/03 13:03:55;;;;;;;1999.90;999.90;;;7.70;99.90;;;;;;5072921;28;20451;-74
2022/02/03 13:06:24;;;;;;;1999.90;999.90;;;7.70;99.90;;;;;;5072727;28;20412;-74
2022/02/03 13:08:58;;;;;;;1999.90;999.90;;;7.70;99.90;;;;;;5073727;28;20786;-74
2022/02/03 13:11:47;;;;;;;1999.90;999.90;;;7.70;99.90;;;;;;5073810;28;20409;-75
2022/02/03 13:14:37;;;;;;;1999.90;999.90;;;7.70;99.90;;;;;;5072631;28;20479;-75
2022/02/03 13:22:28;;;;;;;1999.90;999.90;;;7.70;99.90;;;;;;5072479;28;20516;-74
2022/02/03 13:25:13;;;;;;;1999.90;999.90;;;7.70;99.90;;;;;;5073062;28;20413;-74
2022/02/03 13:30:37;;;;;;;1999.90;999.90;;;7.80;99.90;;;;;;5072253;28;20413;-74
2022/02/03 13:33:05;;;;;;;1999.90;999.90;;;7.90;99.90;;;;;;5072888;28;20432;-74
2022/02/03 13:38:35;;;;;;;1999.90;999.90;;;7.80;99.90;;;;;;5073026;28;20396;-74
2022/02/03 13:41:07;;;;;;;1999.90;999.90;;;7.80;99.90;;;;;;5072550;28;20443;-74
2022/02/03 13:43:38;;;;;;;1999.90;999.90;;;7.80;99.90;;;;;;5072445;28;20456;-74
2022/02/03 13:46:05;;;;;;;1999.90;999.90;;;7.80;99.90;;;;;;5072654;28;20870;-74
2022/02/03 13:48:31;;;;;;;1999.90;999.90;;;7.70;99.90;;;;;;5072597;28;20443;-75
2022/02/03 13:51:00;;;;;;;1999.90;999.90;;;7.80;99.90;;;;;;5072376;28;20445;-74
2022/02/03 13:53:36;;;;;;;1999.90;999.90;;;7.80;99.90;;;;;;5072812;28;20198;-75
2022/02/03 14:21:13;;;;;;;1999.90;999.90;;;7.90;99.90;;;;;;5054836;28;20406;-73
2022/02/03 14:29:14;;;;;;;1999.90;999.90;;;7.80;99.90;;;;;;5054728;28;20433;-74
2022/02/03 14:31:42;;;;;;;1999.90;999.90;;;7.80;99.90;;;;;;5054885;28;20425;-73
2022/02/03 14:34:15;;;;;;;1999.90;999.90;;;7.80;99.90;;;;;;5054629;28;20995;-73
2022/02/03 14:36:45;;;;;;;1999.90;999.90;;;7.80;99.90;;;;;;5054600;28;20764;-73
2022/02/03 14:39:20;;;;;;;1999.90;999.90;;;7.80;99.90;;;;;;5055057;28;20406;-73
2022/02/03 14:41:47;;;;;;;1999.90;999.90;;;7.90;99.90;;;;;;5054920;28;20425;-73
2022/02/03 14:44:16;;;;;;;1999.90;999.90;;;7.90;99.90;;;;;;5054122;28;20406;-74
2022/02/03 14:46:45;;;;;;;1999.90;999.90;;;7.90;99.90;;;;;;5054354;28;20408;-73
2022/02/03 14:49:11;;;;;;;1999.90;999.90;;;7.90;99.90;;;;;;5054514;28;20410;-73
2022/02/03 14:51:49;;;;;;;1999.90;999.90;;;7.80;99.90;;;;;;5054076;28;20432;-74
2022/02/03 14:59:37;;;;;;;1999.90;999.90;;;7.90;99.90;;;;;;5054972;28;20437;-73
2022/02/03 15:02:07;;;;;;;1999.90;999.90;;;7.80;99.90;;;;;;5054481;28;20457;-73
2022/02/03 15:04:34;;;;;;;1999.90;999.90;;;7.80;99.90;;;;;;5054124;28;20172;-73
2022/02/03 15:07:03;;;;;;;1999.90;999.90;;;7.90;99.90;;;;;;5053992;28;20413;-73
2022/02/03 15:09:49;;;;;;;1999.90;999.90;;;7.90;99.90;;;;;;5054501;28;20479;-73
2022/02/03 15:12:42;;;;;;;1999.90;999.90;;;7.90;99.90;;;;;;5053830;28;20425;-73
2022/02/03 15:15:09;;;;;;;1999.90;999.90;;;7.90;99.90;;;;;;5053933;28;20457;-74
2022/02/03 15:17:36;;;;;;;1999.90;999.90;;;7.90;99.90;;;;;;5054479;28;20887;-72
2022/02/03 15:20:05;;;;;;;1999.90;999.90;;;7.80;99.90;;;;;;5052969;28;20467;-75
2022/02/03 15:22:31;;;;;;;1999.90;999.90;;;7.80;99.90;;;;;;5053948;28;20430;-74
2022/02/03 15:24:57;;;;;;;1999.90;999.90;;;7.90;99.90;;;;;;5053817;28;20421;-73
2022/02/03 15:27:23;;;;;;;1999.90;999.90;;;7.90;99.90;;;;;;5052625;28;20273;-74
2022/02/03 15:29:50;;;;;;;1999.90;999.90;;;7.80;99.90;;;;;;5054067;28;20452;-74
2022/02/03 15:32:17;;;;;;;1999.90;999.90;;;7.80;99.90;;;;;;5053853;28;20597;-74
2022/02/03 15:34:43;;;;;;;1999.90;999.90;;;7.80;99.90;;;;;;5052982;28;20458;-74
2022/02/03 15:37:15;;;;;;;1999.90;999.90;;;7.80;99.90;;;;;;5053333;28;20398;-74
2022/02/03 15:39:49;;;;;;;1999.90;999.90;;;7.70;99.90;;;;;;5053974;28;20429;-74
2022/02/03 15:42:27;;;;;;;1999.90;999.90;;;7.80;99.90;;;;;;5053130;28;20445;-74
2022/02/03 15:44:54;;;;;;;1999.90;999.90;;;7.70;99.90;;;;;;5053556;28;20421;-73
2022/02/03 16:03:12;;;;;;;1999.90;999.90;;;7.70;99.90;;;;;;5055261;28;20430;-74
2022/02/03 16:19:00;;;;;;;1999.90;999.90;;;7.70;99.90;;;;;;5053013;28;20391;-75
2022/02/03 16:21:38;;;;;;;1999.90;999.90;;;7.70;99.90;;;;;;5052922;28;20172;-75
2022/02/03 16:26:47;;;;;;;1999.90;999.90;;;7.70;99.90;;;;;;5052569;28;20407;-75
2022/02/03 16:43:23;;;;;;;1999.90;999.90;;;7.70;99.90;;;;;;5052052;28;20986;-74
2022/02/03 16:51:08;;;;;;;1999.90;999.90;;;7.60;99.90;;;;;;5052410;28;20482;-75
2022/02/03 16:53:53;;;;;;;1999.90;999.90;;;7.60;99.90;;;;;;5084340;23;20839;-74
2022/02/03 16:56:53;;;;;;;;;;;;;;;;;;;;;
2022/02/03 17:03:20;;;;;;;1999.90;999.90;;;7.50;99.90;;;;;;5053396;28;20992;-74
2022/02/03 17:05:46;;;;;;;1999.90;999.90;;;7.50;99.90;;;;;;5065321;28;20464;-72
2022/02/03 17:08:12;;;;;;;1999.90;999.90;;;7.50;99.90;;;;;;5051447;28;20410;-72
2022/02/03 17:10:37;;;;;;;1999.90;999.90;;;7.50;99.90;;;;;;5051596;28;20409;-71
2022/02/03 17:13:03;;;;;;;1999.90;999.90;;;7.50;99.90;;;;;;5051991;28;20555;-71
2022/02/03 17:15:29;;;;;;;1999.90;999.90;;;7.50;99.90;;;;;;5070271;28;20207;-71
2022/02/03 17:17:54;;;;;;;1999.90;999.90;;;7.50;99.90;;;;;;5071668;28;20471;-71
2022/02/03 17:20:23;;;;;;;1999.90;999.90;;;7.50;99.90;;;;;;5077924;28;20174;-72
2022/02/03 17:22:52;;;;;;;1999.90;999.90;;;7.50;99.90;;;;;;5076982;28;20579;-71
2022/02/03 17:25:25;;;;;;;1999.90;999.90;;;7.40;99.90;;;;;;5071137;28;20413;-72
2022/02/03 17:30:27;;;;;;;1999.90;999.90;;;7.40;99.90;;;;;;5071330;28;20411;-71
2022/02/03 18:11:24;;;;;;;1999.90;999.90;;;7.40;99.90;;;;;;5067234;28;20428;-72
2022/02/03 18:51:14;;;;;;;1999.90;999.90;;;7.50;99.90;;;;;;5066988;28;20424;-72
2022/02/03 18:53:57;;;;;;;1999.90;999.90;;;7.50;99.90;;;;;;5066864;28;20453;-72
2022/02/03 18:58:58;;;;;;;1999.90;999.90;;;7.60;99.90;;;;;;5066440;28;20415;-72
2022/02/03 19:24:00;;;;;;;1999.90;999.90;;;7.40;99.90;;;;;;5074210;28;20929;-71
2022/02/03 20:11:36;;;;;;;1999.90;999.90;;;7.50;99.90;;;;;;5073223;28;20588;-71
2022/02/03 20:14:09;;;;;;;1999.90;999.90;;;7.50;99.90;;;;;;5071618;28;20448;-71
2022/02/03 20:16:35;;;;;;;1999.90;999.90;;;7.40;99.90;;;;;;5072670;28;20863;-72
2022/02/03 20:19:00;;;;;;;1999.90;999.90;;;7.40;99.90;;;;;;5055148;28;20500;-71
2022/02/03 20:21:30;;;;;;;1999.90;999.90;;;7.50;99.90;;;;;;5072790;28;20162;-72
2022/02/03 20:23:55;;;;;;;1999.90;999.90;;;7.50;99.90;;;;;;5072370;28;20588;-72
2022/02/03 20:26:21;;;;;;;1999.90;999.90;;;7.50;99.90;;;;;;5072049;28;20405;-72
2022/02/03 20:28:47;;;;;;;1999.90;999.90;;;7.60;99.90;;;;;;5072393;28;20262;-72
2022/02/03 20:31:13;;;;;;;1999.90;999.90;;;7.60;99.90;;;;;;5071990;28;20171;-72
2022/02/03 20:33:39;;;;;;;1999.90;999.90;;;7.60;99.90;;;;;;5072810;28;20541;-72
2022/02/03 20:36:09;;;;;;;1999.90;999.90;;;7.60;99.90;;;;;;5072317;28;20531;-72
2022/02/03 20:38:35;;;;;;;1999.90;999.90;;;7.70;99.90;;;;;;5072580;28;20467;-72
2022/02/03 20:41:00;;;;;;;1999.90;999.90;;;7.60;99.90;;;;;;5072409;28;20411;-72
2022/02/03 20:43:26;;;;;;;1999.90;999.90;;;7.60;99.90;;;;;;5072815;28;20471;-72
2022/02/03 20:45:53;;;;;;;1999.90;999.90;;;7.60;99.90;;;;;;5072405;28;20174;-72
2022/02/03 20:48:19;;;;;;;1999.90;999.90;;;7.60;99.90;;;;;;5072879;28;20170;-72
2022/02/03 20:50:49;;;;;;;1999.90;999.90;;;7.60;99.90;;;;;;5071616;28;20778;-72
2022/02/03 20:53:15;;;;;;;1999.90;999.90;;;7.60;99.90;;;;;;5072012;28;20441;-72
2022/02/03 20:55:45;;;;;;;1999.90;999.90;;;7.60;99.90;;;;;;5072096;28;21094;-72
2022/02/03 20:58:15;;;;;;;1999.90;999.90;;;7.50;99.90;;;;;;5072353;28;20396;-72
2022/02/03 21:00:45;;;;;;;1999.90;999.90;;;7.50;99.90;;;;;;5054019;28;20462;-72
2022/02/03 21:05:49;;;;;;;1999.90;999.90;;;7.60;99.90;;;;;;5071955;28;20414;-72
2022/02/03 21:08:18;;;;;;;1999.90;999.90;;;7.60;99.90;;;;;;5071795;28;21001;-72
2022/02/03 21:10:43;;;;;;;1999.90;999.90;;;7.60;99.90;;;;;;5071294;28;20171;-72
2022/02/03 21:13:09;;;;;;;1999.90;999.90;;;7.50;99.90;;;;;;5072145;28;20424;-72
2022/02/03 21:15:39;;;;;;;1999.90;999.90;;;7.50;99.90;;;;;;5071545;28;20190;-72
2022/02/03 21:18:09;;;;;;;1999.90;999.90;;;7.50;99.90;;;;;;5072130;28;20147;-73
2022/02/03 21:20:37;;;;;;;1999.90;999.90;;;7.50;99.90;;;;;;5071735;28;20413;-73
2022/02/03 21:23:04;;;;;;;1999.90;999.90;;;7.50;99.90;;;;;;5071661;28;20425;-71
2022/02/03 21:25:34;;;;;;;1999.90;999.90;;;7.50;99.90;;;;;;5071608;28;20413;-72
2022/02/03 21:28:07;;;;;;;1999.90;999.90;;;7.50;99.90;;;;;;5071981;28;20382;-72
2022/02/03 21:30:33;;;;;;;1999.90;999.90;;;7.40;99.90;;;;;;5070797;28;20413;-72
2022/02/03 21:32:59;;;;;;;1999.90;999.90;;;7.40;99.90;;;;;;5071771;28;20479;-71
2022/02/03 21:35:26;;;;;;;1999.90;999.90;;;7.30;99.90;;;;;;5071274;28;20183;-71
2022/02/03 21:37:52;;;;;;;1999.90;999.90;;;7.40;99.90;;;;;;5071400;28;20655;-72
2022/02/03 21:40:19;;;;;;;1999.90;999.90;;;7.30;99.90;;;;;;5071541;28;20401;-72
2022/02/03 21:42:44;;;;;;;1999.90;999.90;;;7.30;99.90;;;;;;5071495;28;20179;-73
2022/02/03 21:45:10;;;;;;;1999.90;999.90;;;7.30;99.90;;;;;;5070934;28;20547;-72
2022/02/03 21:47:36;;;;;;;1999.90;999.90;;;7.30;99.90;;;;;;5071648;28;20174;-72
2022/02/03 21:50:04;;;;;;;1999.90;999.90;;;7.30;99.90;;;;;;5071071;28;20420;-72
2022/02/03 21:52:36;;;;;;;1999.90;999.90;;;7.30;99.90;;;;;;5071493;28;20194;-73
2022/02/03 21:55:05;;;;;;;1999.90;999.90;;;7.40;99.90;;;;;;5071415;28;20547;-73
2022/02/03 21:57:30;;;;;;;1999.90;999.90;;;7.30;99.90;;;;;;5071462;28;20405;-73
2022/02/03 21:59:56;;;;;;;1999.90;999.90;;;7.30;99.90;;;;;;5071179;28;20912;-73
2022/02/03 22:02:22;;;;;;;1999.90;999.90;;;7.40;99.90;;;;;;5071423;28;20584;-72
2022/02/03 22:04:48;;;;;;;1999.90;999.90;;;7.40;99.90;;;;;;5071250;28;20432;-73
2022/02/03 22:07:14;;;;;;;1999.90;999.90;;;7.40;99.90;;;;;;5071221;28;20401;-73
2022/02/03 22:09:40;;;;;;;1999.90;999.90;;;7.30;99.90;;;;;;5071432;28;21067;-73
2022/02/03 22:12:06;;;;;;;1999.90;999.90;;;7.30;99.90;;;;;;5071217;28;20195;-71
2022/02/03 22:14:33;;;;;;;1999.90;999.90;;;7.30;99.90;;;;;;5070412;28;20190;-70
2022/02/03 22:17:00;;;;;;;1999.90;999.90;;;7.30;99.90;;;;;;5071193;28;20401;-72
2022/02/03 22:19:28;;;;;;;1999.90;999.90;;;7.30;99.90;;;;;;5071284;28;20404;-71
2022/02/03 22:24:31;;;;;;;1999.90;999.90;;;7.40;99.90;;;;;;5071070;28;20421;-72
2022/02/03 22:43:19;;;;;;;1999.90;999.90;;;7.50;99.90;;;;;;5074603;28;20428;-71
2022/02/03 22:46:05;;;;;;;1999.90;999.90;;;7.50;99.90;;;;;;5074469;28;20480;-71
2022/02/03 22:48:30;;;;;;;1999.90;999.90;;;7.50;99.90;;;;;;5075276;28;20390;-71
2022/02/03 22:50:59;;;;;;;1999.90;999.90;;;7.50;99.90;;;;;;5075208;28;20413;-71
2022/02/03 22:53:32;;;;;;;1999.90;999.90;;;7.50;99.90;;;;;;5112791;22;20590;-74
2022/02/03 22:55:59;;;;;;;1999.90;999.90;;;7.50;99.90;;;;;;5075404;28;20452;-74
2022/02/03 22:59:25;;;;;;;1999.90;999.90;;;7.60;99.90;;;;;;5075722;28;20948;-74
2022/02/03 23:01:13;;;;;;;1999.90;999.90;;;7.50;99.90;;;;;;5067449;28;21046;-74
2022/02/03 23:03:42;;;;;;;1999.90;999.90;;;7.60;99.90;;;;;;5075420;28;20532;-74
2022/02/03 23:06:10;;;;;;;1999.90;999.90;;;7.60;99.90;;;;;;5075405;28;20455;-74
2022/02/03 23:19:02;;;;;;;1999.90;999.90;;;7.60;99.90;;;;;;5075043;28;20851;-74
2022/02/03 23:23:55;;;;;;;1999.90;999.90;;;7.70;99.90;;;;;;5075183;28;20428;-73
2022/02/03 23:26:24;;;;;;;1999.90;999.90;;;7.70;99.90;;;;;;5075063;28;20839;-74
2022/02/03 23:28:55;;;;;;;1999.90;999.90;;;7.70;99.90;;;;;;5075114;28;20440;-73
2022/02/03 23:31:21;;;;;;;1999.90;999.90;;;7.70;99.90;;;;;;5074873;28;20742;-74
2022/02/03 23:33:47;;;;;;;1999.90;999.90;;;7.70;99.90;;;;;;5074560;28;20425;-74
2022/02/03 23:36:13;;;;;;;1999.90;999.90;;;7.70;99.90;;;;;;5074363;28;20502;-74
2022/02/03 23:39:00;;;;;;;1999.90;999.90;;;7.70;99.90;;;;;;5075117;28;20167;-74
